createdAt,value
2023-03-16T00:01:36.904Z,95272.63
2023-03-16T00:04:06.411Z,95268.25
2023-03-16T00:06:34.355Z,95282.53
2023-03-16T00:09:02.288Z,95275.75
2023-03-16T00:11:30.696Z,95275.94
2023-03-16T00:13:58.868Z,95278.84
2023-03-16T00:16:26.839Z,95279.28
2023-03-16T00:18:54.754Z,95276.78
2023-03-16T00:21:24.049Z,95276.34
2023-03-16T00:23:53.484Z,95276.72
2023-03-16T00:26:22.543Z,95272.78
2023-03-16T00:28:54.308Z,95274.03
2023-03-16T00:31:25.095Z,95275.63
2023-03-16T00:33:53.154Z,95278.84
2023-03-16T00:36:23.204Z,95280.81
2023-03-16T00:38:51.493Z,95279.72
2023-03-16T00:41:19.465Z,95281.53
2023-03-16T00:43:48.955Z,95285.69
2023-03-16T00:46:18.988Z,95278.56
2023-03-16T00:48:48.310Z,95280.81
2023-03-16T00:51:18.733Z,95278.94
2023-03-16T00:53:48.689Z,95282.19
2023-03-16T00:56:18.003Z,95279.06
2023-03-16T00:58:45.976Z,95282.25
2023-03-16T01:01:16.897Z,95279.66
2023-03-16T01:03:44.848Z,95267.47
2023-03-16T01:06:15.242Z,95263.38
2023-03-16T01:08:43.223Z,95263.00
2023-03-16T01:11:16.523Z,95264.97
2023-03-16T01:13:47.143Z,95261.41
2023-03-16T01:16:15.950Z,95258.22
2023-03-16T01:18:43.905Z,95259.81
2023-03-16T01:21:14.012Z,95263.38
2023-03-16T01:23:44.158Z,95252.25
2023-03-16T01:26:15.292Z,95252.78
2023-03-16T01:28:44.534Z,95250.56
2023-03-16T01:31:15.445Z,95250.19
2023-03-16T01:33:44.489Z,95243.44
2023-03-16T01:36:17.666Z,95252.78
2023-03-16T01:38:54.125Z,95240.06
2023-03-16T01:41:24.237Z,95246.03
2023-03-16T01:43:53.742Z,95237.91
2023-03-16T01:46:25.013Z,95233.97
2023-03-16T01:49:09.212Z,95244.59
2023-03-16T01:51:44.026Z,95237.97
2023-03-16T01:54:19.430Z,95233.34
2023-03-16T01:56:55.334Z,95228.19
2023-03-16T01:59:27.260Z,95236.72
2023-03-16T02:01:56.263Z,95225.53
2023-03-16T02:04:33.851Z,95217.19
2023-03-16T02:07:04.712Z,95211.75
2023-03-16T02:09:33.164Z,95210.16
2023-03-16T02:12:03.039Z,95206.59
2023-03-16T02:14:33.206Z,95197.44
2023-03-16T02:17:01.222Z,95190.72
2023-03-16T02:19:42.791Z,95192.69
2023-03-16T02:22:11.817Z,95193.88
2023-03-16T02:24:39.723Z,95192.25
2023-03-16T02:27:11.840Z,95192.88
2023-03-16T02:29:55.371Z,95188.25
2023-03-16T02:32:25.516Z,95193.06
2023-03-16T02:34:53.616Z,95196.25
2023-03-16T02:37:21.989Z,95203.03
2023-03-16T02:39:50.320Z,95203.75
2023-03-16T02:42:22.951Z,95210.88
2023-03-16T02:44:56.926Z,95209.25
2023-03-16T02:47:35.740Z,95202.50
2023-03-16T02:50:06.756Z,95217.19
2023-03-16T02:52:35.244Z,95208.94
2023-03-16T02:55:03.756Z,95216.22
2023-03-16T02:57:31.732Z,95214.91
2023-03-16T03:00:11.637Z,95209.13
2023-03-16T03:02:40.473Z,95214.28
2023-03-16T03:05:08.997Z,95216.63
2023-03-16T03:07:37.846Z,95213.38
2023-03-16T03:10:08.944Z,95210.19
2023-03-16T03:12:36.970Z,95219.69
2023-03-16T03:15:11.182Z,95218.81
2023-03-16T03:17:47.413Z,95215.63
2023-03-16T03:20:17.571Z,95209.03
2023-03-16T03:22:47.648Z,95209.56
2023-03-16T03:25:18.402Z,95210.19
2023-03-16T03:27:47.691Z,95216.94
2023-03-16T03:30:21.163Z,95216.63
2023-03-16T03:32:49.607Z,95217.59
2023-03-16T03:35:20.159Z,95207.34
2023-03-16T03:37:48.388Z,95214.81
2023-03-16T03:40:19.743Z,95204.41
2023-03-16T03:42:51.395Z,95199.69
2023-03-16T03:45:20.827Z,95198.09
2023-03-16T03:47:48.778Z,95200.50
2023-03-16T03:50:21.094Z,95206.81
2023-03-16T03:53:09.069Z,95216.22
2023-03-16T03:55:49.931Z,95211.69
2023-03-16T03:58:18.041Z,95205.56
2023-03-16T04:00:47.518Z,95213.94
2023-03-16T04:03:16.315Z,95209.41
2023-03-16T04:05:46.256Z,95208.41
2023-03-16T04:08:14.170Z,95209.41
2023-03-16T04:10:42.437Z,95210.38
2023-03-16T04:13:10.362Z,95222.94
2023-03-16T04:15:39.498Z,95216.78
2023-03-16T04:18:14.117Z,95214.28
2023-03-16T04:20:43.205Z,95213.47
2023-03-16T04:23:16.635Z,95199.16
2023-03-16T04:25:45.470Z,95198.78
2023-03-16T04:28:18.069Z,95201.19
2023-03-16T04:30:48.895Z,95198.47
2023-03-16T04:33:27.739Z,95205.56
2023-03-16T04:35:56.189Z,95210.38
2023-03-16T04:38:25.346Z,95207.25
2023-03-16T04:40:56.803Z,95207.19
2023-03-16T04:43:28.877Z,95196.56
2023-03-16T04:46:04.164Z,95189.19
2023-03-16T04:48:34.103Z,95208.22
2023-03-16T04:51:04.105Z,95203.78
2023-03-16T04:53:34.424Z,95198.97
2023-03-16T04:56:10.461Z,95183.69
2023-03-16T04:58:38.614Z,95183.81
2023-03-16T05:01:08.182Z,95172.81
2023-03-16T05:03:37.592Z,95163.72
2023-03-16T05:06:05.795Z,95165.34
2023-03-16T05:08:35.949Z,95170.06
2023-03-16T05:11:03.956Z,95173.34
2023-03-16T05:13:36.299Z,95188.22
2023-03-16T05:16:06.122Z,95194.53
2023-03-16T05:18:40.190Z,95200.66
2023-03-16T05:21:08.229Z,95206.41
2023-03-16T05:23:56.410Z,95213.06
2023-03-16T05:26:25.505Z,95215.13
2023-03-16T05:28:53.613Z,95204.09
2023-03-16T05:31:26.616Z,95208.88
2023-03-16T05:34:00.370Z,95197.91
2023-03-16T05:36:28.333Z,95198.06
2023-03-16T05:39:02.173Z,95193.63
2023-03-16T05:41:37.847Z,95184.00
2023-03-16T05:44:13.691Z,95199.50
2023-03-16T05:47:05.177Z,95189.63
2023-03-16T05:49:37.290Z,95200.16
2023-03-16T05:52:10.201Z,95215.72
2023-03-16T05:54:38.331Z,95206.25
2023-03-16T05:57:07.090Z,95212.31
2023-03-16T05:59:36.250Z,95210.63
2023-03-16T06:02:05.343Z,95210.53
2023-03-16T06:04:33.726Z,95222.47
2023-03-16T06:07:03.259Z,95210.19
2023-03-16T06:09:31.878Z,95212.66
2023-03-16T06:12:00.540Z,95199.25
2023-03-16T06:14:30.281Z,95197.00
2023-03-16T06:16:58.473Z,95192.47
2023-03-16T06:19:26.538Z,95195.41
2023-03-16T06:21:59.638Z,95183.13
2023-03-16T06:24:30.110Z,95179.91
2023-03-16T06:26:58.031Z,95184.66
2023-03-16T06:29:32.355Z,95177.97
2023-03-16T06:32:01.732Z,95183.13
2023-03-16T06:34:30.507Z,95176.91
2023-03-16T06:36:58.602Z,95187.78
2023-03-16T06:39:26.927Z,95188.81
2023-03-16T06:41:56.912Z,95189.25
2023-03-16T06:44:25.107Z,95194.53
2023-03-16T06:47:10.454Z,95204.56
2023-03-16T06:49:38.498Z,95193.50
2023-03-16T06:52:15.018Z,95199.97
2023-03-16T06:54:43.083Z,95196.66
2023-03-16T06:57:13.977Z,95194.44
2023-03-16T06:59:41.924Z,95201.56
2023-03-16T07:02:12.030Z,95206.72
2023-03-16T07:04:40.490Z,95216.63
2023-03-16T07:07:08.732Z,95209.25
2023-03-16T07:09:39.642Z,95216.75
2023-03-16T07:12:09.555Z,95208.19
2023-03-16T07:14:40.369Z,95209.03
2023-03-16T07:17:11.437Z,95216.75
2023-03-16T07:19:39.540Z,95219.47
2023-03-16T07:22:07.743Z,95216.41
2023-03-16T07:24:39.177Z,95212.97
2023-03-16T07:27:07.311Z,95207.50
2023-03-16T07:29:35.540Z,95201.22
2023-03-16T07:32:07.168Z,95203.25
2023-03-16T07:34:39.165Z,95207.34
2023-03-16T07:37:09.170Z,95196.59
2023-03-16T07:39:38.418Z,95193.25
2023-03-16T07:42:11.277Z,95191.16
2023-03-16T07:44:50.597Z,95201.97
2023-03-16T07:47:21.290Z,95191.69
2023-03-16T07:49:50.714Z,95191.69
2023-03-16T07:52:19.089Z,95194.13
2023-03-16T07:54:48.852Z,95192.53
2023-03-16T07:57:17.018Z,95199.25
2023-03-16T07:59:45.642Z,95199.09
2023-03-16T08:02:18.233Z,95196.38
2023-03-16T08:04:48.244Z,95198.25
2023-03-16T08:07:17.382Z,95189.25
2023-03-16T08:10:12.226Z,95183.84
2023-03-16T08:12:52.675Z,95187.09
2023-03-16T08:15:21.618Z,95191.09
2023-03-16T08:17:52.475Z,95193.50
2023-03-16T08:20:26.548Z,95186.31
2023-03-16T08:22:55.141Z,95195.16
2023-03-16T08:25:27.809Z,95194.75
2023-03-16T08:28:10.725Z,95198.78
2023-03-16T08:30:45.872Z,95200.38
2023-03-16T08:33:26.111Z,95198.03
2023-03-16T08:35:56.085Z,95198.00
2023-03-16T08:38:24.285Z,95204.38
2023-03-16T08:40:53.473Z,95203.00
2023-03-16T08:43:24.012Z,95206.41
2023-03-16T08:45:53.867Z,95213.22
2023-03-16T08:48:25.953Z,95216.00
2023-03-16T08:50:55.428Z,95217.44
2023-03-16T08:53:23.408Z,95209.22
2023-03-16T08:55:51.877Z,95199.63
2023-03-16T08:58:19.969Z,95202.84
2023-03-16T09:00:50.205Z,95201.25
2023-03-16T09:03:18.416Z,95200.03
2023-03-16T09:05:46.352Z,95197.25
2023-03-16T09:08:15.667Z,95200.81
2023-03-16T09:10:43.573Z,95201.03
2023-03-16T09:13:11.585Z,95212.03
2023-03-16T09:15:40.438Z,95202.41
2023-03-16T09:18:08.351Z,95208.41
2023-03-16T09:20:36.573Z,95206.44
2023-03-16T09:23:04.941Z,95194.03
2023-03-16T09:25:34.209Z,95197.63
2023-03-16T09:28:02.132Z,95199.25
2023-03-16T09:30:30.315Z,95198.41
2023-03-16T09:32:58.484Z,95193.03
2023-03-16T09:35:26.773Z,95183.19
2023-03-16T09:38:05.686Z,95187.56
2023-03-16T09:40:38.210Z,95179.97
2023-03-16T09:43:24.921Z,95182.00
2023-03-16T09:46:01.779Z,95181.97
2023-03-16T09:48:31.772Z,95181.53
2023-03-16T09:51:01.681Z,95177.53
2023-03-16T09:53:31.446Z,95170.69
2023-03-16T09:56:05.231Z,95166.66
2023-03-16T09:58:33.328Z,95166.16
2023-03-16T10:01:10.109Z,95171.78
2023-03-16T10:03:59.079Z,95172.16
2023-03-16T10:06:27.916Z,95171.72
2023-03-16T10:09:04.986Z,95172.91
2023-03-16T10:11:38.490Z,95176.50
2023-03-16T10:14:17.709Z,95168.38
2023-03-16T10:16:51.340Z,95171.06
2023-03-16T10:19:23.502Z,95165.47
2023-03-16T10:21:56.009Z,95177.06
2023-03-16T10:24:41.110Z,95174.22
2023-03-16T10:27:20.503Z,95170.47
2023-03-16T10:29:48.852Z,95169.59
2023-03-16T10:32:20.004Z,95165.25
2023-03-16T10:34:54.980Z,95166.44
2023-03-16T10:37:25.455Z,95168.03
2023-03-16T10:39:54.938Z,95172.97
2023-03-16T10:42:27.131Z,95175.22
2023-03-16T10:45:01.771Z,95182.03
2023-03-16T10:47:32.909Z,95178.09
2023-03-16T10:50:11.587Z,95181.66
2023-03-16T10:52:42.970Z,95183.56
2023-03-16T10:55:16.974Z,95188.44
2023-03-16T10:57:51.394Z,95191.63
2023-03-16T11:00:23.296Z,95193.06
2023-03-16T11:02:53.681Z,95200.94
2023-03-16T11:05:32.725Z,95189.88
2023-03-16T11:08:03.713Z,95194.69
2023-03-16T11:10:40.447Z,95191.81
2023-03-16T11:13:18.870Z,95193.97
2023-03-16T11:15:52.030Z,95183.25
2023-03-16T11:18:39.759Z,95182.66
2023-03-16T11:21:14.132Z,95182.09
2023-03-16T11:23:49.825Z,95176.88
2023-03-16T11:26:25.316Z,95176.03
2023-03-16T11:29:03.655Z,95169.47
2023-03-16T11:31:42.712Z,95173.59
2023-03-16T11:34:17.660Z,95173.56
2023-03-16T11:36:51.364Z,95162.94
2023-03-16T11:39:32.277Z,95154.72
2023-03-16T11:42:13.197Z,95158.44
2023-03-16T11:44:51.546Z,95158.22
2023-03-16T11:47:49.111Z,95145.56
2023-03-16T11:50:23.298Z,95139.81
2023-03-16T11:53:02.420Z,95137.78
2023-03-16T11:55:40.891Z,95138.13
2023-03-16T11:58:29.220Z,95132.72
2023-03-16T12:01:08.727Z,95134.59
2023-03-16T12:04:02.939Z,95138.00
2023-03-16T12:06:47.065Z,95136.75
2023-03-16T12:09:48.204Z,95120.53
2023-03-16T12:12:29.584Z,95118.97
2023-03-16T12:15:16.548Z,95127.81
2023-03-16T12:17:48.064Z,95126.41
2023-03-16T12:20:21.271Z,95126.75
2023-03-16T12:22:53.646Z,95108.03
2023-03-16T12:25:24.836Z,95107.84
2023-03-16T12:27:55.548Z,95101.25
2023-03-16T12:30:36.205Z,95096.34
2023-03-16T12:33:13.757Z,95096.94
2023-03-16T12:35:47.878Z,95094.63
2023-03-16T12:38:23.769Z,95094.97
2023-03-16T12:41:01.151Z,95081.34
2023-03-16T12:43:47.633Z,95078.50
2023-03-16T12:46:27.065Z,95078.47
2023-03-16T12:49:00.318Z,95073.94
2023-03-16T12:51:35.692Z,95062.91
2023-03-16T12:54:05.681Z,95064.88
2023-03-16T12:56:36.739Z,95065.66
2023-03-16T12:59:07.615Z,95059.19
2023-03-16T13:01:40.128Z,95045.88
2023-03-16T13:04:14.275Z,95056.19
2023-03-16T13:06:47.500Z,95054.03
2023-03-16T13:09:21.580Z,95043.59
2023-03-16T13:11:51.268Z,95045.13
2023-03-16T13:14:35.721Z,95051.47
2023-03-16T13:17:23.836Z,95048.72
2023-03-16T13:20:08.941Z,95038.84
2023-03-16T13:22:47.353Z,95044.91
2023-03-16T13:25:18.774Z,95040.69
2023-03-16T13:27:49.597Z,95036.09
2023-03-16T13:30:20.645Z,95036.09
2023-03-16T13:32:49.625Z,95038.06
2023-03-16T13:35:20.517Z,95040.69
2023-03-16T13:37:49.800Z,95031.50
2023-03-16T13:40:20.789Z,95037.00
2023-03-16T13:42:52.894Z,95032.31
2023-03-16T13:45:24.237Z,95028.34
2023-03-16T13:47:52.603Z,95032.00
2023-03-16T13:50:22.165Z,95025.16
2023-03-16T13:52:58.738Z,95025.41
2023-03-16T13:55:32.739Z,95026.72
2023-03-16T13:58:01.812Z,95016.53
2023-03-16T14:00:34.658Z,95012.47
2023-03-16T14:03:12.863Z,95015.66
2023-03-16T14:05:42.169Z,95022.44
2023-03-16T14:08:17.058Z,95019.91
2023-03-16T14:10:46.801Z,95026.16
2023-03-16T14:13:36.292Z,95018.81
2023-03-16T14:16:12.977Z,95012.28
2023-03-16T14:18:43.691Z,95012.22
2023-03-16T14:21:17.826Z,95014.78
2023-03-16T14:23:49.308Z,95014.09
2023-03-16T14:26:19.416Z,95016.28
2023-03-16T14:28:57.496Z,95018.06
2023-03-16T14:31:33.619Z,95018.81
2023-03-16T14:34:03.845Z,95008.56
2023-03-16T14:36:38.662Z,95018.06
2023-03-16T14:39:14.356Z,95007.66
2023-03-16T14:41:42.406Z,95010.13
2023-03-16T14:44:21.589Z,95007.91
2023-03-16T14:46:50.716Z,95012.09
2023-03-16T14:49:22.107Z,95013.50
2023-03-16T14:51:54.832Z,95006.16
2023-03-16T14:54:23.920Z,95010.91
2023-03-16T14:56:54.339Z,95010.25
2023-03-16T14:59:23.012Z,95002.91
2023-03-16T15:01:53.559Z,95000.53
2023-03-16T15:04:27.902Z,95004.38
2023-03-16T15:06:58.270Z,94993.94
2023-03-16T15:09:32.766Z,95000.63
2023-03-16T15:12:00.804Z,94989.31
2023-03-16T15:14:42.713Z,94990.66
2023-03-16T15:17:11.019Z,94983.34
2023-03-16T15:19:38.919Z,94981.72
2023-03-16T15:22:08.808Z,94977.69
2023-03-16T15:24:37.241Z,94977.63
2023-03-16T15:27:09.929Z,94966.66
2023-03-16T15:29:38.222Z,94974.94
2023-03-16T15:32:08.155Z,94970.03
2023-03-16T15:34:36.114Z,94968.28
2023-03-16T15:37:04.442Z,94964.03
2023-03-16T15:39:33.860Z,94956.63
2023-03-16T15:42:01.815Z,94958.09
2023-03-16T15:44:29.680Z,94951.28
2023-03-16T15:46:57.645Z,94956.09
2023-03-16T15:49:27.047Z,94951.41
2023-03-16T15:51:56.497Z,94956.50
2023-03-16T15:54:24.698Z,94957.91
2023-03-16T15:56:56.009Z,94946.75
2023-03-16T15:59:27.137Z,94948.59
2023-03-16T16:01:55.045Z,94951.63
2023-03-16T16:04:25.111Z,94949.00
2023-03-16T16:06:55.435Z,94951.75
2023-03-16T16:09:24.148Z,94948.63
2023-03-16T16:11:53.644Z,94938.13
2023-03-16T16:14:25.967Z,94943.88
2023-03-16T16:16:54.917Z,94935.91
2023-03-16T16:19:22.991Z,94937.47
2023-03-16T16:21:50.894Z,94934.91
2023-03-16T16:24:19.335Z,94938.00
2023-03-16T16:26:54.424Z,94939.44
2023-03-16T16:29:27.179Z,94928.63
2023-03-16T16:31:55.428Z,94934.78
2023-03-16T16:34:25.587Z,94941.09
2023-03-16T16:36:53.959Z,94937.41
2023-03-16T16:39:22.157Z,94934.41
2023-03-16T16:41:52.259Z,94932.03
2023-03-16T16:44:23.618Z,94931.00
2023-03-16T16:46:53.715Z,94930.03
2023-03-16T16:49:24.827Z,94930.50
2023-03-16T16:51:53.678Z,94935.94
2023-03-16T16:54:23.352Z,94931.38
2023-03-16T16:56:53.897Z,94927.97
2023-03-16T16:59:23.777Z,94936.09
2023-03-16T17:01:54.413Z,94936.59
2023-03-16T17:04:24.875Z,94936.19
2023-03-16T17:06:55.741Z,94934.41
2023-03-16T17:09:24.329Z,94940.16
2023-03-16T17:11:52.319Z,94947.38
2023-03-16T17:14:21.778Z,94938.34
2023-03-16T17:16:51.664Z,94936.19
2023-03-16T17:19:23.303Z,94931.34
2023-03-16T17:21:52.229Z,94930.84
2023-03-16T17:24:20.109Z,94934.22
2023-03-16T17:26:52.292Z,94942.88
2023-03-16T17:29:24.355Z,94942.16
2023-03-16T17:31:52.916Z,94940.66
2023-03-16T17:34:23.999Z,94939.78
2023-03-16T17:36:52.438Z,94935.25
2023-03-16T17:39:21.767Z,94939.91
2023-03-16T17:41:52.363Z,94939.25
2023-03-16T17:44:21.438Z,94932.03
2023-03-16T17:46:49.803Z,94941.66
2023-03-16T17:49:20.705Z,94938.94
2023-03-16T17:51:50.060Z,94930.53
2023-03-16T17:54:18.072Z,94936.06
2023-03-16T17:56:46.665Z,94942.03
2023-03-16T17:59:18.823Z,94943.44
2023-03-16T18:01:47.958Z,94940.53
2023-03-16T18:04:17.753Z,94935.53
2023-03-16T18:06:47.602Z,94939.78
2023-03-16T18:09:17.917Z,94940.59
2023-03-16T18:11:48.285Z,94939.91
2023-03-16T18:14:25.406Z,94948.56
2023-03-16T18:16:54.612Z,94953.56
2023-03-16T18:19:25.380Z,94949.25
2023-03-16T18:21:54.214Z,94942.78
2023-03-16T18:24:26.587Z,94937.13
2023-03-16T18:26:55.312Z,94944.06
2023-03-16T18:29:24.108Z,94945.19
2023-03-16T18:31:56.188Z,94944.63
2023-03-16T18:34:28.806Z,94937.69
2023-03-16T18:36:59.723Z,94943.81
2023-03-16T18:39:29.066Z,94946.75
2023-03-16T18:41:57.054Z,94950.84
2023-03-16T18:44:26.824Z,94944.50
2023-03-16T18:47:01.773Z,94949.34
2023-03-16T18:49:34.097Z,94955.38
2023-03-16T18:52:02.102Z,94957.41
2023-03-16T18:54:35.575Z,94961.03
2023-03-16T18:57:04.809Z,94962.63
2023-03-16T18:59:32.812Z,94957.75
2023-03-16T19:02:00.963Z,94965.00
2023-03-16T19:04:32.696Z,94966.94
2023-03-16T19:07:00.830Z,94960.09
2023-03-16T19:09:33.199Z,94965.75
2023-03-16T19:12:03.707Z,94968.59
2023-03-16T19:14:34.598Z,94965.06
2023-03-16T19:17:02.571Z,94968.25
2023-03-16T19:19:30.494Z,94973.91
2023-03-16T19:22:03.436Z,94968.56
2023-03-16T19:24:36.514Z,94964.06
2023-03-16T19:27:05.411Z,94952.94
2023-03-16T19:29:35.642Z,94960.63
2023-03-16T19:32:03.707Z,94963.03
2023-03-16T19:34:31.796Z,94966.22
2023-03-16T19:36:59.711Z,94961.78
2023-03-16T19:39:27.862Z,94962.25
2023-03-16T19:41:59.440Z,94971.06
2023-03-16T19:44:29.357Z,94966.28
2023-03-16T19:46:59.164Z,94971.50
2023-03-16T19:49:29.385Z,94967.31
2023-03-16T19:51:57.793Z,94960.72
2023-03-16T19:54:27.632Z,94965.13
2023-03-16T19:57:00.336Z,94973.09
2023-03-16T19:59:33.916Z,94964.25
2023-03-16T20:02:02.326Z,94969.56
2023-03-16T20:04:30.686Z,94977.59
2023-03-16T20:06:58.630Z,94964.88
2023-03-16T20:09:27.442Z,94962.13
2023-03-16T20:11:55.329Z,94965.03
2023-03-16T20:14:30.731Z,94967.94
2023-03-16T20:16:59.135Z,94964.78
2023-03-16T20:19:27.068Z,94966.78
2023-03-16T20:21:54.999Z,94967.78
2023-03-16T20:24:23.306Z,94975.19
2023-03-16T20:26:53.598Z,94964.03
2023-03-16T20:29:28.485Z,94967.31
2023-03-16T20:31:56.955Z,94960.59
2023-03-16T20:34:27.204Z,94966.19
2023-03-16T20:36:55.868Z,94963.03
2023-03-16T20:39:23.814Z,94959.63
2023-03-16T20:41:52.723Z,94962.59
2023-03-16T20:44:23.570Z,94963.09
2023-03-16T20:46:52.931Z,94965.63
2023-03-16T20:49:32.772Z,94962.88
2023-03-16T20:52:00.717Z,94966.94
2023-03-16T20:54:28.615Z,94957.75
2023-03-16T20:56:56.592Z,94961.72
2023-03-16T20:59:26.555Z,94960.16
2023-03-16T21:01:56.378Z,94963.75
2023-03-16T21:04:27.298Z,94956.53
2023-03-16T21:06:57.595Z,94951.31
2023-03-16T21:09:25.711Z,94954.38
2023-03-16T21:11:53.590Z,94959.84
2023-03-16T21:14:24.402Z,94965.06
2023-03-16T21:16:54.244Z,94971.84
2023-03-16T21:19:24.902Z,94967.06
2023-03-16T21:21:53.149Z,94969.53
2023-03-16T21:24:21.190Z,94964.41
2023-03-16T21:26:49.202Z,94968.06
2023-03-16T21:29:21.253Z,94967.28
2023-03-16T21:31:49.556Z,94966.47
2023-03-16T21:34:26.196Z,94964.47
2023-03-16T21:36:54.200Z,94972.50
2023-03-16T21:39:25.156Z,94971.34
2023-03-16T21:41:53.574Z,94959.53
2023-03-16T21:44:21.840Z,94964.19
2023-03-16T21:46:49.892Z,94965.34
2023-03-16T21:49:18.064Z,94958.59
2023-03-16T21:51:47.735Z,94961.56
2023-03-16T21:54:16.908Z,94957.38
2023-03-16T21:56:45.925Z,94956.22
2023-03-16T21:59:13.874Z,94947.81
2023-03-16T22:01:58.249Z,94950.41
2023-03-16T22:04:26.640Z,94951.00
2023-03-16T22:06:55.929Z,94951.00
2023-03-16T22:09:24.970Z,94965.00
2023-03-16T22:11:52.905Z,94957.81
2023-03-16T22:14:20.861Z,94949.81
2023-03-16T22:16:48.763Z,94950.13
2023-03-16T22:19:17.936Z,94950.69
2023-03-16T22:21:48.455Z,94958.78
2023-03-16T22:24:19.715Z,94958.00
2023-03-16T22:26:49.044Z,94965.16
2023-03-16T22:29:25.361Z,94956.78
2023-03-16T22:31:56.964Z,94960.03
2023-03-16T22:34:29.853Z,94950.94
2023-03-16T22:36:58.628Z,94954.13
2023-03-16T22:39:28.009Z,94943.72
2023-03-16T22:41:55.942Z,94930.56
2023-03-16T22:44:24.918Z,94932.59
2023-03-16T22:46:52.972Z,94920.16
2023-03-16T22:49:23.873Z,94921.31
2023-03-16T22:51:53.793Z,94922.03
2023-03-16T22:54:25.416Z,94921.59
2023-03-16T22:56:54.983Z,94926.44
2023-03-16T22:59:26.160Z,94927.69
2023-03-16T23:01:54.255Z,94926.53
2023-03-16T23:04:24.516Z,94929.69
2023-03-16T23:06:54.664Z,94931.72
2023-03-16T23:09:23.372Z,94938.94
2023-03-16T23:11:54.242Z,94932.59
2023-03-16T23:14:25.225Z,94937.78
2023-03-16T23:16:53.604Z,94936.38
2023-03-16T23:19:25.361Z,94945.41
2023-03-16T23:21:54.750Z,94951.19
2023-03-16T23:24:22.939Z,94959.75
2023-03-16T23:26:52.046Z,94958.38
2023-03-16T23:29:20.818Z,94952.63
2023-03-16T23:31:50.394Z,94951.88
2023-03-16T23:34:20.088Z,94953.31
2023-03-16T23:36:48.045Z,94948.72
2023-03-16T23:39:16.167Z,94939.91
2023-03-16T23:41:46.785Z,94935.13
2023-03-16T23:44:17.716Z,94939.03
2023-03-16T23:46:45.903Z,94943.38
2023-03-16T23:49:20.337Z,94941.38
2023-03-16T23:51:48.277Z,94938.19
2023-03-16T23:54:19.479Z,94939.41
2023-03-16T23:56:47.578Z,94935.00
2023-03-16T23:59:16.429Z,94937.78
